Time;durP1;ratioP1;P1;durP2;ratioP2;P2;SDS_P1;SDS_P2;PMS_P1;PMS_P2;Temp;Humidity;BMP_temperature;BMP_pressure;BME280_temperature;BME280_humidity;BME280_pressure;Samples;Min_cycle;Max_cycle;Signal;HPM_P1;HPM_P2
2021/01/10 00:02:25;;;;;;;16.90;10.30;;;-2.50;99.90;;;;;;5063673;28;20208;-76
2021/01/10 00:04:50;;;;;;;18.53;9.67;;;-2.50;99.90;;;;;;5061134;28;20210;-76
2021/01/10 00:07:16;;;;;;;23.17;12.60;;;-2.50;99.90;;;;;;5064504;28;20534;-76
2021/01/10 00:09:41;;;;;;;19.80;10.03;;;-2.50;99.90;;;;;;5061157;28;20181;-76
2021/01/10 00:12:07;;;;;;;19.83;10.43;;;-2.50;99.90;;;;;;5063411;28;20605;-76
2021/01/10 00:14:32;;;;;;;21.23;11.27;;;-2.50;99.90;;;;;;5062324;28;20210;-76
2021/01/10 00:16:58;;;;;;;15.13;10.73;;;-2.50;99.90;;;;;;5062154;28;20253;-76
2021/01/10 00:19:23;;;;;;;19.90;10.90;;;-2.50;99.90;;;;;;5063321;28;20220;-76
2021/01/10 00:21:49;;;;;;;20.20;11.03;;;-2.50;99.90;;;;;;5060601;28;20211;-76
2021/01/10 00:24:14;;;;;;;21.73;11.10;;;-2.50;99.90;;;;;;5064201;28;20215;-76
2021/01/10 00:26:40;;;;;;;15.90;10.03;;;-2.60;99.90;;;;;;5061153;28;20293;-76
2021/01/10 00:29:07;;;;;;;15.27;9.63;;;-2.60;99.90;;;;;;5063049;28;20195;-76
2021/01/10 00:31:35;;;;;;;16.87;9.80;;;-2.60;99.90;;;;;;5061908;28;20529;-76
2021/01/10 00:34:02;;;;;;;14.63;9.20;;;-2.70;99.90;;;;;;5062229;28;20442;-76
2021/01/10 00:36:34;;;;;;;17.87;10.60;;;-2.70;99.90;;;;;;5062584;28;20771;-76
2021/01/10 00:39:00;;;;;;;16.40;10.10;;;-2.80;99.90;;;;;;5062371;28;20485;-76
2021/01/10 00:41:26;;;;;;;16.53;9.73;;;-2.80;99.90;;;;;;5062558;28;20759;-76
2021/01/10 00:43:51;;;;;;;17.27;9.60;;;-2.80;99.90;;;;;;5060702;28;20583;-76
2021/01/10 00:46:17;;;;;;;16.27;9.27;;;-2.80;99.90;;;;;;5063689;28;20184;-76
2021/01/10 00:48:42;;;;;;;13.33;8.70;;;-2.90;99.90;;;;;;5060574;28;20187;-76
2021/01/10 00:51:12;;;;;;;18.17;9.30;;;-2.80;99.90;;;;;;5062681;28;20679;-76
2021/01/10 00:53:38;;;;;;;21.40;9.77;;;-2.80;99.90;;;;;;5060947;28;20263;-76
2021/01/10 00:56:05;;;;;;;19.27;10.73;;;-2.80;99.90;;;;;;5062454;28;20908;-76
2021/01/10 00:58:30;;;;;;;20.03;10.60;;;-2.80;99.90;;;;;;5061755;28;20487;-76
2021/01/10 01:00:56;;;;;;;14.70;8.67;;;-2.80;99.90;;;;;;5060763;28;21021;-76
2021/01/10 01:03:21;;;;;;;16.40;10.10;;;-2.80;99.90;;;;;;5062845;28;20735;-76
2021/01/10 01:05:48;;;;;;;15.93;10.20;;;-2.80;99.90;;;;;;5060105;28;20293;-76
2021/01/10 01:08:13;;;;;;;15.80;9.77;;;-2.80;99.90;;;;;;5063250;28;20228;-76
2021/01/10 01:10:39;;;;;;;17.03;10.00;;;-2.80;99.90;;;;;;5060518;28;20428;-76
2021/01/10 01:13:04;;;;;;;16.67;8.87;;;-2.70;99.90;;;;;;5061906;28;20184;-76
2021/01/10 01:15:30;;;;;;;18.20;11.00;;;-2.70;99.90;;;;;;5061487;28;20670;-76
2021/01/10 01:17:55;;;;;;;15.30;8.60;;;-2.60;99.90;;;;;;5060775;28;20261;-77
2021/01/10 01:20:21;;;;;;;17.23;10.30;;;-2.60;99.90;;;;;;5062536;28;20203;-76
2021/01/10 01:22:47;;;;;;;19.80;10.47;;;-2.60;99.90;;;;;;5059792;28;20241;-76
2021/01/10 01:25:13;;;;;;;14.63;9.50;;;-2.50;99.90;;;;;;5044660;28;20207;-76
2021/01/10 01:27:38;;;;;;;18.13;10.07;;;-2.50;99.90;;;;;;5042516;28;20415;-76
2021/01/10 01:30:05;;;;;;;18.30;10.63;;;-2.40;99.90;;;;;;5061374;28;20792;-76
2021/01/10 01:32:33;;;;;;;20.07;10.10;;;-2.40;99.90;;;;;;5060813;28;20174;-76
2021/01/10 01:34:58;;;;;;;19.40;10.27;;;-2.40;99.90;;;;;;5042792;28;20507;-76
2021/01/10 01:37:24;;;;;;;16.80;9.77;;;-2.40;99.90;;;;;;5044128;28;20493;-77
2021/01/10 01:39:49;;;;;;;18.57;10.97;;;-2.30;99.90;;;;;;5059368;28;20186;-76
2021/01/10 01:42:15;;;;;;;14.87;9.60;;;-2.30;99.90;;;;;;5062826;28;20193;-76
2021/01/10 01:44:40;;;;;;;16.43;10.70;;;-2.30;99.90;;;;;;5059799;28;20209;-77
2021/01/10 01:47:06;;;;;;;16.50;10.87;;;-2.20;99.90;;;;;;5061512;28;20179;-76
2021/01/10 01:49:32;;;;;;;21.80;10.70;;;-2.20;99.90;;;;;;5042906;28;20182;-76
2021/01/10 01:51:58;;;;;;;18.13;11.47;;;-2.20;99.90;;;;;;5060292;28;20185;-76
2021/01/10 01:54:23;;;;;;;18.03;9.80;;;-2.20;99.90;;;;;;5062292;28;20482;-76
2021/01/10 01:56:49;;;;;;;18.10;9.90;;;-2.10;99.90;;;;;;5059140;28;20397;-76
2021/01/10 01:59:15;;;;;;;20.53;12.30;;;-2.10;99.90;;;;;;5062452;28;20176;-76
2021/01/10 02:01:40;;;;;;;21.20;10.97;;;-2.10;99.90;;;;;;5059432;28;20192;-76
2021/01/10 02:04:20;;;;;;;17.47;10.33;;;-2.10;99.90;;;;;;5061161;28;20233;-76
2021/01/10 02:07:01;;;;;;;16.43;9.23;;;-2.00;99.90;;;;;;5055054;28;20754;-76
2021/01/10 02:09:27;;;;;;;17.60;11.00;;;-2.10;99.90;;;;;;5057166;28;20394;-76
2021/01/10 02:11:55;;;;;;;20.03;10.90;;;-2.10;99.90;;;;;;5062061;28;20428;-76
2021/01/10 02:14:23;;;;;;;22.83;11.10;;;-2.00;99.90;;;;;;5058849;28;20801;-76
2021/01/10 02:16:49;;;;;;;20.03;11.20;;;-2.00;99.90;;;;;;5062272;28;20471;-76
2021/01/10 02:19:40;;;;;;;23.47;10.90;;;-2.00;99.90;;;;;;5058934;28;20394;-76
2021/01/10 02:22:10;;;;;;;19.13;10.63;;;-2.10;99.90;;;;;;5060180;28;20190;-76
2021/01/10 02:24:35;;;;;;;19.87;11.63;;;-2.10;99.90;;;;;;5060059;28;20474;-76
2021/01/10 02:27:04;;;;;;;20.37;11.63;;;-2.10;99.90;;;;;;5060704;28;20769;-76
2021/01/10 02:29:30;;;;;;;18.87;11.47;;;-2.10;99.90;;;;;;5061008;28;20183;-77
2021/01/10 02:31:57;;;;;;;26.27;11.33;;;-2.10;99.90;;;;;;5059839;28;20483;-76
2021/01/10 02:34:26;;;;;;;19.33;11.13;;;-2.10;99.90;;;;;;5061956;28;20428;-76
2021/01/10 02:37:07;;;;;;;25.60;12.53;;;-2.10;99.90;;;;;;5059095;28;20422;-76
2021/01/10 02:39:54;;;;;;;17.07;10.57;;;-2.20;99.90;;;;;;5060806;28;20476;-76
2021/01/10 02:42:44;;;;;;;18.53;11.30;;;-2.30;99.90;;;;;;5055436;28;20419;-76
2021/01/10 02:45:15;;;;;;;18.03;11.57;;;-2.40;99.90;;;;;;5065009;28;20502;-76
2021/01/10 02:47:40;;;;;;;20.67;12.23;;;-2.40;99.90;;;;;;5063617;28;20425;-76
2021/01/10 02:50:07;;;;;;;16.63;10.90;;;-2.50;99.90;;;;;;5064856;28;20919;-76
2021/01/10 02:52:33;;;;;;;18.23;12.67;;;-2.50;99.90;;;;;;5063942;28;20178;-76
2021/01/10 02:54:59;;;;;;;27.43;12.27;;;-2.60;99.90;;;;;;5063708;28;20424;-76
2021/01/10 02:57:30;;;;;;;19.20;11.57;;;-2.60;99.90;;;;;;5064950;28;20448;-76
2021/01/10 02:59:59;;;;;;;15.97;10.60;;;-2.70;99.90;;;;;;5063235;28;20400;-76
2021/01/10 03:02:26;;;;;;;22.93;11.33;;;-2.80;99.90;;;;;;5047261;28;20437;-76
2021/01/10 03:04:52;;;;;;;18.80;13.13;;;-2.80;99.90;;;;;;5062411;28;20943;-76
2021/01/10 03:07:18;;;;;;;21.70;12.83;;;-2.90;99.90;;;;;;5065623;28;20634;-76
2021/01/10 03:09:44;;;;;;;20.40;11.43;;;-2.90;99.90;;;;;;5062437;28;20806;-76
2021/01/10 03:12:16;;;;;;;20.10;12.30;;;-2.90;99.90;;;;;;5046850;28;20781;-76
2021/01/10 03:14:43;;;;;;;26.93;11.70;;;-3.00;99.90;;;;;;5062780;28;20419;-76
2021/01/10 03:17:15;;;;;;;23.53;12.57;;;-3.10;99.90;;;;;;5064727;28;20881;-76
2021/01/10 03:19:41;;;;;;;23.73;12.60;;;-3.10;99.90;;;;;;5062537;28;20426;-76
2021/01/10 03:22:06;;;;;;;21.50;10.77;;;-3.20;99.90;;;;;;5064059;28;20491;-77
2021/01/10 03:24:32;;;;;;;20.03;12.83;;;-3.20;99.90;;;;;;5063582;28;20232;-76
2021/01/10 03:26:57;;;;;;;17.10;10.60;;;-3.30;99.90;;;;;;5062665;28;20171;-76
2021/01/10 03:29:23;;;;;;;20.17;11.27;;;-3.30;99.90;;;;;;5064969;28;20187;-76
2021/01/10 03:31:48;;;;;;;22.53;12.57;;;-3.40;99.90;;;;;;5061514;28;20180;-76
2021/01/10 03:34:14;;;;;;;21.03;12.00;;;-3.40;99.90;;;;;;5046983;28;20260;-76
2021/01/10 03:36:39;;;;;;;19.40;11.93;;;-3.40;99.90;;;;;;5062560;28;20176;-76
2021/01/10 03:39:05;;;;;;;20.70;12.00;;;-3.40;99.90;;;;;;5063638;28;20182;-76
2021/01/10 03:41:31;;;;;;;22.27;11.80;;;-3.50;99.90;;;;;;5063113;28;20264;-76
2021/01/10 03:43:56;;;;;;;21.70;12.10;;;-3.50;99.90;;;;;;5062181;28;20443;-76
2021/01/10 03:46:22;;;;;;;20.70;12.27;;;-3.60;99.90;;;;;;5046709;28;20655;-76
2021/01/10 03:48:47;;;;;;;26.10;12.00;;;-3.60;99.90;;;;;;5061565;28;20610;-76
2021/01/10 03:51:13;;;;;;;18.97;10.83;;;-3.60;99.90;;;;;;5064217;28;20280;-77
2021/01/10 03:53:38;;;;;;;25.27;12.93;;;-3.70;99.90;;;;;;5062140;28;20212;-76
2021/01/10 03:56:04;;;;;;;21.23;12.23;;;-3.60;99.90;;;;;;5062332;28;20185;-76
2021/01/10 03:58:29;;;;;;;22.60;11.60;;;-3.60;99.90;;;;;;5063349;28;20191;-76
2021/01/10 04:00:55;;;;;;;22.53;11.60;;;-3.60;99.90;;;;;;5043782;28;20212;-76
2021/01/10 04:03:20;;;;;;;21.40;12.10;;;-3.60;99.90;;;;;;5064522;28;20660;-76
2021/01/10 04:05:46;;;;;;;26.07;11.90;;;-3.50;99.90;;;;;;5061083;28;20209;-76
2021/01/10 04:08:11;;;;;;;23.50;11.40;;;-3.40;99.90;;;;;;5063807;28;20188;-76
2021/01/10 04:10:37;;;;;;;22.77;13.00;;;-3.40;99.90;;;;;;5044041;28;20221;-76
2021/01/10 04:13:02;;;;;;;22.73;12.00;;;-3.40;99.90;;;;;;5062508;28;20206;-76
2021/01/10 04:15:28;;;;;;;24.47;12.50;;;-3.40;99.90;;;;;;5063411;28;20562;-76
2021/01/10 04:17:53;;;;;;;17.67;10.50;;;-3.40;99.90;;;;;;5061292;28;20185;-76
2021/01/10 04:20:19;;;;;;;19.90;11.77;;;-3.30;99.90;;;;;;5064158;28;20197;-75
2021/01/10 04:22:44;;;;;;;21.60;11.17;;;-3.30;99.90;;;;;;5061212;28;20272;-76
2021/01/10 04:25:10;;;;;;;19.40;12.57;;;-3.30;99.90;;;;;;5063167;28;20564;-76
2021/01/10 04:27:36;;;;;;;18.00;10.90;;;-3.40;99.90;;;;;;5062042;28;20181;-76
2021/01/10 04:30:03;;;;;;;21.33;13.07;;;-3.40;99.90;;;;;;5061883;28;20470;-76
2021/01/10 04:32:28;;;;;;;22.33;11.53;;;-3.40;99.90;;;;;;5063267;28;20547;-76
2021/01/10 04:34:54;;;;;;;16.97;10.40;;;-3.30;99.90;;;;;;5043086;28;20446;-76
2021/01/10 04:37:19;;;;;;;19.97;12.03;;;-3.30;99.90;;;;;;5064151;28;20177;-76
2021/01/10 04:39:45;;;;;;;21.03;11.80;;;-3.30;99.90;;;;;;5060561;28;20182;-76
2021/01/10 04:42:14;;;;;;;21.50;11.67;;;-3.30;99.90;;;;;;5062992;28;20988;-76
2021/01/10 04:44:40;;;;;;;19.57;11.50;;;-3.20;99.90;;;;;;5061228;28;20239;-76
2021/01/10 04:47:06;;;;;;;19.27;11.73;;;-3.20;99.90;;;;;;5062187;28;20451;-76
2021/01/10 04:49:32;;;;;;;20.40;10.70;;;-3.10;99.90;;;;;;5044461;28;20386;-76
2021/01/10 04:51:58;;;;;;;19.17;12.10;;;-3.00;99.90;;;;;;5060768;28;20191;-76
2021/01/10 04:54:28;;;;;;;20.40;11.23;;;-3.00;99.90;;;;;;5063127;28;20260;-76
2021/01/10 04:56:56;;;;;;;17.80;10.60;;;-3.00;99.90;;;;;;5042618;28;20435;-76
2021/01/10 04:59:22;;;;;;;20.93;11.40;;;-2.90;99.90;;;;;;5063462;28;20432;-76
2021/01/10 05:01:53;;;;;;;22.57;12.60;;;-2.90;99.90;;;;;;5059886;28;20399;-76
2021/01/10 05:04:19;;;;;;;16.43;10.27;;;-2.80;99.90;;;;;;5056088;28;20437;-76
2021/01/10 05:06:45;;;;;;;22.83;12.40;;;-2.80;99.90;;;;;;5063146;28;20439;-76
2021/01/10 05:09:11;;;;;;;19.47;10.63;;;-2.80;99.90;;;;;;5060838;28;20423;-76
2021/01/10 05:11:37;;;;;;;19.37;11.13;;;-2.70;99.90;;;;;;5061619;28;20411;-77
2021/01/10 05:14:04;;;;;;;22.30;12.40;;;-2.70;99.90;;;;;;5061602;28;20200;-76
2021/01/10 05:16:31;;;;;;;17.63;11.20;;;-2.60;99.90;;;;;;5042739;28;20409;-76
2021/01/10 05:18:58;;;;;;;17.57;11.00;;;-2.60;99.90;;;;;;5062361;28;20842;-76
2021/01/10 05:21:23;;;;;;;18.67;10.80;;;-2.60;99.90;;;;;;5059696;28;20480;-76
2021/01/10 05:23:53;;;;;;;18.60;12.33;;;-2.50;99.90;;;;;;5063094;28;20826;-76
2021/01/10 05:26:20;;;;;;;20.10;11.17;;;-2.40;99.90;;;;;;5055715;28;20182;-75
2021/01/10 05:28:49;;;;;;;20.77;11.60;;;-2.40;99.90;;;;;;5063131;28;20438;-76
2021/01/10 05:31:34;;;;;;;18.87;10.90;;;-2.40;99.90;;;;;;5059469;28;20392;-76
2021/01/10 05:34:00;;;;;;;25.20;12.03;;;-2.30;99.90;;;;;;5058578;28;20433;-76
2021/01/10 05:36:31;;;;;;;23.67;11.50;;;-2.30;99.90;;;;;;5062088;28;20415;-76
2021/01/10 05:39:09;;;;;;;22.87;11.93;;;-2.20;99.90;;;;;;5060203;28;20173;-76
2021/01/10 05:41:35;;;;;;;22.90;12.67;;;-2.20;99.90;;;;;;5060824;28;20800;-76
2021/01/10 05:44:03;;;;;;;23.10;12.70;;;-2.20;99.90;;;;;;5060727;28;20459;-76
2021/01/10 05:46:32;;;;;;;15.27;10.83;;;-2.10;99.90;;;;;;5043639;28;20420;-76
2021/01/10 05:48:59;;;;;;;18.40;12.37;;;-2.10;99.90;;;;;;5060370;28;20397;-76
2021/01/10 05:51:29;;;;;;;19.60;11.80;;;-2.10;99.90;;;;;;5061842;28;20448;-76
2021/01/10 05:53:55;;;;;;;25.37;12.23;;;-2.10;99.90;;;;;;5059495;28;20597;-76
2021/01/10 05:56:20;;;;;;;18.53;11.67;;;-2.10;99.90;;;;;;5062474;28;20482;-76
2021/01/10 05:58:55;;;;;;;20.50;12.90;;;-2.00;99.90;;;;;;5059144;28;20421;-77
2021/01/10 06:01:21;;;;;;;20.80;10.90;;;-2.00;99.90;;;;;;5055535;28;20649;-77
2021/01/10 06:03:48;;;;;;;20.67;11.23;;;-2.00;99.90;;;;;;5062665;28;20441;-78
2021/01/10 06:06:14;;;;;;;21.70;11.53;;;-2.00;99.90;;;;;;5059299;28;20475;-78
2021/01/10 06:08:40;;;;;;;17.80;11.13;;;-1.90;99.90;;;;;;5061395;28;20418;-78
2021/01/10 06:11:26;;;;;;;22.93;11.40;;;-1.90;99.90;;;;;;5042533;28;20264;-78
2021/01/10 06:14:00;;;;;;;20.10;11.33;;;-2.00;99.90;;;;;;5055877;28;20409;-78
2021/01/10 06:16:28;;;;;;;16.13;10.33;;;-1.90;99.90;;;;;;5061789;28;20395;-77
2021/01/10 06:18:59;;;;;;;21.00;11.10;;;-2.00;99.90;;;;;;5058818;28;20420;-78
2021/01/10 06:21:27;;;;;;;19.17;10.80;;;-1.90;99.90;;;;;;5043869;28;20763;-78
2021/01/10 06:23:56;;;;;;;19.90;10.20;;;-1.90;99.90;;;;;;5058914;28;20550;-78
2021/01/10 06:26:23;;;;;;;19.60;10.80;;;-1.90;99.90;;;;;;5044257;28;20413;-78
2021/01/10 06:28:52;;;;;;;29.17;11.83;;;-1.90;99.90;;;;;;5055324;28;20398;-78
2021/01/10 06:31:29;;;;;;;22.07;11.40;;;-1.90;99.90;;;;;;5036852;28;20406;-78
2021/01/10 06:33:56;;;;;;;20.20;12.47;;;-1.90;99.90;;;;;;5056298;28;20418;-78
2021/01/10 06:36:24;;;;;;;20.37;12.00;;;-1.90;99.90;;;;;;5062249;28;20393;-78
2021/01/10 06:38:52;;;;;;;15.60;10.50;;;-1.90;99.90;;;;;;5058906;28;20394;-77
2021/01/10 06:41:24;;;;;;;21.93;10.87;;;-1.90;99.90;;;;;;5062129;28;20423;-78
2021/01/10 06:43:55;;;;;;;19.90;11.20;;;-1.90;99.90;;;;;;5037222;28;20495;-78
2021/01/10 06:46:21;;;;;;;21.00;12.60;;;-1.90;99.90;;;;;;5055522;28;20895;-78
2021/01/10 06:48:48;;;;;;;22.70;12.50;;;-1.80;99.90;;;;;;5054754;28;20441;-78
2021/01/10 06:51:15;;;;;;;22.90;12.30;;;-1.80;99.90;;;;;;5061429;28;20467;-78
2021/01/10 06:53:41;;;;;;;22.43;12.57;;;-1.80;99.90;;;;;;5059431;28;20418;-78
2021/01/10 06:56:07;;;;;;;22.30;11.77;;;-1.80;99.90;;;;;;5060814;28;20403;-78
2021/01/10 06:58:33;;;;;;;19.70;10.80;;;-1.80;99.90;;;;;;5060170;28;20423;-78
2021/01/10 07:00:59;;;;;;;19.07;10.30;;;-1.80;99.90;;;;;;5059597;28;20423;-78
2021/01/10 07:03:26;;;;;;;20.00;11.50;;;-1.70;99.90;;;;;;5061304;28;20195;-78
2021/01/10 07:06:05;;;;;;;21.50;12.47;;;-1.70;99.90;;;;;;5058465;28;20468;-78
2021/01/10 07:08:40;;;;;;;21.33;11.37;;;-1.60;99.90;;;;;;5039482;28;20480;-78
2021/01/10 07:11:21;;;;;;;19.30;11.90;;;-1.60;99.90;;;;;;5059883;28;20421;-79
2021/01/10 07:13:51;;;;;;;18.87;11.70;;;-1.60;99.90;;;;;;5043798;28;21024;-74
2021/01/10 07:16:21;;;;;;;15.07;9.80;;;-1.60;99.90;;;;;;5058419;28;20403;-75
2021/01/10 07:18:58;;;;;;;17.60;11.23;;;-1.60;99.90;;;;;;5061828;28;21083;-75
2021/01/10 07:21:33;;;;;;;20.93;10.93;;;-1.50;99.90;;;;;;5055077;28;20493;-75
2021/01/10 07:24:14;;;;;;;18.83;13.47;;;-1.50;99.90;;;;;;5060645;28;20421;-75
2021/01/10 07:26:54;;;;;;;18.13;10.40;;;-1.50;99.90;;;;;;5060494;28;20875;-75
2021/01/10 07:29:32;;;;;;;21.90;11.00;;;-1.50;99.90;;;;;;5054733;28;20396;-74
2021/01/10 07:32:07;;;;;;;24.63;11.93;;;-1.50;99.90;;;;;;5059884;28;20418;-75
2021/01/10 07:34:53;;;;;;;20.13;11.33;;;-1.50;99.90;;;;;;5063717;28;20513;-74
2021/01/10 07:37:24;;;;;;;35.97;11.73;;;-1.40;99.90;;;;;;5047541;28;20426;-75
2021/01/10 07:39:55;;;;;;;17.63;10.40;;;-1.40;99.90;;;;;;5057993;28;20433;-73
2021/01/10 07:42:33;;;;;;;19.40;11.33;;;-1.40;99.90;;;;;;5057932;28;20542;-74
2021/01/10 07:45:22;;;;;;;19.60;10.63;;;-1.40;99.90;;;;;;5060092;28;20469;-74
2021/01/10 07:47:52;;;;;;;15.50;9.73;;;-1.40;99.90;;;;;;5039321;28;20817;-75
2021/01/10 07:50:18;;;;;;;22.50;9.93;;;-1.40;99.90;;;;;;5057222;28;20410;-75
2021/01/10 07:52:45;;;;;;;18.60;11.40;;;-1.30;99.90;;;;;;5064345;28;20414;-75
2021/01/10 07:55:18;;;;;;;22.23;10.80;;;-1.30;99.90;;;;;;5062239;28;20452;-75
2021/01/10 07:57:52;;;;;;;16.63;11.50;;;-1.30;99.90;;;;;;5064340;28;20879;-74
2021/01/10 08:00:26;;;;;;;20.87;11.00;;;-1.20;99.90;;;;;;5057018;28;20912;-75
2021/01/10 08:03:03;;;;;;;18.13;10.43;;;-1.20;99.90;;;;;;5057894;28;20429;-74
2021/01/10 08:05:35;;;;;;;21.07;11.73;;;-1.20;99.90;;;;;;5063439;28;20755;-74
2021/01/10 08:08:11;;;;;;;20.13;11.80;;;-1.10;99.90;;;;;;5062362;28;20398;-74
2021/01/10 08:10:50;;;;;;;19.37;11.37;;;-1.10;99.90;;;;;;5044194;28;20513;-75
2021/01/10 08:13:37;;;;;;;20.30;13.03;;;-1.10;99.90;;;;;;5064301;28;20934;-74
2021/01/10 08:16:10;;;;;;;19.57;11.53;;;-1.00;99.90;;;;;;5060704;28;20872;-74
2021/01/10 08:18:39;;;;;;;22.20;12.47;;;-1.00;99.90;;;;;;5062498;28;20422;-75
2021/01/10 08:21:10;;;;;;;16.63;11.00;;;-1.00;99.90;;;;;;5062539;28;20427;-75
2021/01/10 08:23:37;;;;;;;20.80;11.93;;;-0.90;99.90;;;;;;5062243;28;20807;-75
2021/01/10 08:26:06;;;;;;;20.60;11.97;;;-0.90;99.90;;;;;;5062253;28;20434;-74
2021/01/10 08:28:36;;;;;;;19.03;11.70;;;-0.70;99.90;;;;;;5062729;28;20996;-75
2021/01/10 08:31:04;;;;;;;17.40;9.97;;;-0.70;99.90;;;;;;5061765;28;20427;-74
2021/01/10 08:33:29;;;;;;;19.10;11.67;;;-0.60;99.90;;;;;;5063006;28;21039;-75
2021/01/10 08:36:23;;;;;;;18.43;11.87;;;-0.50;99.90;;;;;;5061037;28;20427;-75
2021/01/10 08:38:53;;;;;;;21.80;11.80;;;-0.40;99.90;;;;;;5056930;28;20212;-74
2021/01/10 08:41:23;;;;;;;17.90;10.77;;;-0.40;99.90;;;;;;5056044;28;20557;-74
2021/01/10 08:43:55;;;;;;;16.90;10.80;;;-0.30;99.90;;;;;;5038966;28;20823;-75
2021/01/10 08:46:21;;;;;;;16.20;10.50;;;-0.30;99.90;;;;;;5056586;28;20879;-75
2021/01/10 08:48:47;;;;;;;20.67;11.57;;;-0.20;99.90;;;;;;5056381;28;20728;-74
2021/01/10 08:51:48;;;;;;;17.27;11.50;;;-0.20;99.90;;;;;;5062918;28;20398;-75
2021/01/10 08:54:18;;;;;;;18.57;12.37;;;0.00;99.90;;;;;;5019853;28;20448;-75
2021/01/10 08:56:49;;;;;;;20.00;11.47;;;-0.10;99.90;;;;;;5060516;28;20408;-74
2021/01/10 08:59:14;;;;;;;18.57;10.93;;;0.00;99.90;;;;;;5057084;28;20519;-74
2021/01/10 09:01:40;;;;;;;17.10;10.00;;;0.10;99.90;;;;;;5068845;28;20894;-74
2021/01/10 09:04:11;;;;;;;24.60;14.63;;;0.20;99.90;;;;;;5063082;28;20199;-74
2021/01/10 09:07:03;;;;;;;21.80;11.53;;;0.30;99.90;;;;;;5061013;28;20181;-75
2021/01/10 09:09:31;;;;;;;19.93;12.77;;;0.40;99.90;;;;;;5058024;28;20416;-75
2021/01/10 09:12:14;;;;;;;17.20;10.70;;;0.50;99.90;;;;;;5062302;28;20390;-75
2021/01/10 09:15:13;;;;;;;17.23;11.00;;;0.60;99.90;;;;;;5043950;28;20807;-75
2021/01/10 09:17:50;;;;;;;13.97;9.63;;;0.60;99.90;;;;;;5060700;28;20901;-75
2021/01/10 09:20:24;;;;;;;18.23;10.40;;;1.20;99.90;;;;;;5059451;28;20497;-75
2021/01/10 09:22:50;;;;;;;18.63;10.20;;;1.50;99.90;;;;;;5056006;28;20264;-74
2021/01/10 09:25:18;;;;;;;17.30;10.37;;;1.80;99.90;;;;;;5044651;28;20461;-75
2021/01/10 09:28:08;;;;;;;20.23;10.60;;;1.90;99.90;;;;;;5059993;28;20252;-75
2021/01/10 09:30:35;;;;;;;15.53;9.67;;;2.40;99.90;;;;;;5058718;28;20506;-75
2021/01/10 09:33:03;;;;;;;13.97;9.80;;;2.80;99.90;;;;;;5043729;28;20848;-75
2021/01/10 09:35:55;;;;;;;11.40;8.53;;;2.90;99.90;;;;;;5060073;28;20769;-75
2021/01/10 09:38:23;;;;;;;19.43;11.10;;;2.80;99.90;;;;;;5055399;28;20467;-75
2021/01/10 09:41:07;;;;;;;17.53;11.40;;;2.70;99.90;;;;;;5055215;28;20446;-75
2021/01/10 09:43:41;;;;;;;16.87;10.67;;;2.50;99.90;;;;;;5058446;28;20442;-75
2021/01/10 09:46:32;;;;;;;12.33;8.93;;;2.60;99.90;;;;;;5060428;28;20436;-75
2021/01/10 09:49:02;;;;;;;14.57;8.90;;;2.90;99.90;;;;;;5039351;28;20793;-75
2021/01/10 09:51:54;;;;;;;14.13;8.87;;;3.20;99.90;;;;;;5061497;28;20446;-75
2021/01/10 09:54:22;;;;;;;12.43;9.10;;;3.80;99.90;;;;;;5051374;28;20509;-75
2021/01/10 09:56:49;;;;;;;13.10;8.67;;;4.00;99.90;;;;;;5054967;28;20511;-75
2021/01/10 09:59:40;;;;;;;11.90;8.90;;;4.20;99.90;;;;;;5061931;28;20408;-75
2021/01/10 10:02:33;;;;;;;13.40;9.20;;;4.40;99.90;;;;;;5041071;28;20515;-76
2021/01/10 10:05:13;;;;;;;12.33;9.10;;;4.60;99.90;;;;;;5057552;28;20454;-75
2021/01/10 10:07:45;;;;;;;14.13;9.00;;;4.80;99.90;;;;;;5041986;28;20416;-76
2021/01/10 10:10:25;;;;;;;13.20;9.20;;;4.90;99.90;;;;;;5061396;28;20423;-76
2021/01/10 10:13:04;;;;;;;11.47;9.03;;;5.00;99.90;;;;;;5055310;28;20930;-75
2021/01/10 10:15:38;;;;;;;15.67;9.87;;;5.20;99.90;;;;;;5057583;28;20432;-76
2021/01/10 10:18:05;;;;;;;13.20;8.60;;;5.30;99.90;;;;;;5042762;28;20409;-76
2021/01/10 10:20:32;;;;;;;13.20;9.57;;;5.20;99.90;;;;;;5059711;28;20428;-76
2021/01/10 10:23:08;;;;;;;10.83;8.40;;;5.30;99.90;;;;;;5061533;28;20420;-76
2021/01/10 10:25:33;;;;;;;11.77;8.53;;;5.30;99.90;;;;;;5042071;28;20465;-76
2021/01/10 10:28:00;;;;;;;14.37;9.63;;;5.50;99.90;;;;;;5044116;28;20779;-76
2021/01/10 10:30:27;;;;;;;12.37;9.17;;;5.40;99.90;;;;;;5061178;28;20256;-75
2021/01/10 10:32:53;;;;;;;10.40;8.73;;;5.30;99.90;;;;;;5058584;28;20952;-76
2021/01/10 10:35:18;;;;;;;11.60;8.80;;;5.30;99.90;;;;;;5061842;28;20491;-75
2021/01/10 10:37:44;;;;;;;12.57;8.60;;;5.30;99.90;;;;;;5058915;28;20206;-75
2021/01/10 10:40:12;;;;;;;11.60;8.33;;;5.40;99.90;;;;;;5060809;28;20179;-74
2021/01/10 10:42:37;;;;;;;12.80;7.63;;;5.50;99.90;;;;;;5059503;28;20826;-75
2021/01/10 10:45:03;;;;;;;8.70;7.80;;;5.60;99.90;;;;;;5059929;28;20472;-74
2021/01/10 10:47:29;;;;;;;10.40;8.03;;;5.40;99.90;;;;;;5060953;28;20664;-75
2021/01/10 10:49:54;;;;;;;12.23;8.83;;;5.50;99.90;;;;;;5040966;28;20436;-75
2021/01/10 10:52:20;;;;;;;10.37;7.33;;;5.50;99.90;;;;;;5061422;28;20175;-75
2021/01/10 10:54:46;;;;;;;12.80;7.87;;;5.50;99.90;;;;;;5058529;28;20220;-75
2021/01/10 10:57:11;;;;;;;12.43;8.10;;;5.70;99.90;;;;;;5060801;28;20216;-75
2021/01/10 10:59:38;;;;;;;10.27;8.17;;;5.90;99.90;;;;;;5059911;28;20190;-76
2021/01/10 11:02:04;;;;;;;13.30;9.13;;;5.90;99.90;;;;;;5059797;28;20185;-76
2021/01/10 11:04:30;;;;;;;12.07;8.40;;;5.80;99.90;;;;;;5061817;28;20473;-75
2021/01/10 11:06:55;;;;;;;9.20;7.50;;;5.90;99.90;;;;;;5062591;28;20642;-76
2021/01/10 11:09:21;;;;;;;13.20;9.70;;;5.70;99.90;;;;;;5065494;28;20186;-76
2021/01/10 11:11:47;;;;;;;13.07;7.97;;;5.50;99.90;;;;;;5044147;28;20176;-76
2021/01/10 11:14:14;;;;;;;12.37;8.20;;;5.10;99.90;;;;;;5064826;28;20198;-76
2021/01/10 11:16:46;;;;;;;11.60;8.70;;;5.10;99.90;;;;;;5062891;28;20417;-75
2021/01/10 11:19:12;;;;;;;13.57;9.30;;;5.00;99.90;;;;;;5064555;28;20423;-76
2021/01/10 11:21:39;;;;;;;10.67;7.67;;;5.30;99.90;;;;;;5062989;28;20848;-77
2021/01/10 11:24:06;;;;;;;15.90;9.20;;;5.30;99.90;;;;;;5063375;28;20438;-76
2021/01/10 11:26:32;;;;;;;14.60;9.57;;;5.20;99.90;;;;;;5063743;28;20814;-76
2021/01/10 11:28:59;;;;;;;10.00;8.20;;;4.80;99.90;;;;;;5044356;28;20509;-75
2021/01/10 11:31:26;;;;;;;14.13;10.30;;;4.60;99.90;;;;;;5064373;28;20425;-75
2021/01/10 11:33:53;;;;;;;11.70;8.30;;;4.60;99.90;;;;;;5061646;28;20486;-75
2021/01/10 11:36:19;;;;;;;13.83;10.20;;;4.50;99.90;;;;;;5057541;28;20918;-75
2021/01/10 11:38:48;;;;;;;11.17;8.23;;;4.50;99.90;;;;;;5046764;28;20557;-74
2021/01/10 11:41:14;;;;;;;13.13;9.93;;;4.40;99.90;;;;;;5061675;28;20403;-75
2021/01/10 11:43:40;;;;;;;11.43;8.73;;;4.50;99.90;;;;;;5045694;28;20419;-74
2021/01/10 11:46:07;;;;;;;8.80;7.10;;;4.50;99.90;;;;;;5062924;28;20823;-73
2021/01/10 11:48:34;;;;;;;17.00;9.97;;;4.40;99.90;;;;;;5062702;28;20175;-75
2021/01/10 11:51:01;;;;;;;9.00;6.53;;;4.20;99.90;;;;;;5063554;28;20425;-76
2021/01/10 11:53:26;;;;;;;11.80;8.90;;;4.10;99.90;;;;;;5061563;28;20455;-76
2021/01/10 11:55:52;;;;;;;12.30;7.20;;;4.00;99.90;;;;;;5064781;28;21205;-76
2021/01/10 11:58:17;;;;;;;9.40;6.70;;;3.80;99.90;;;;;;5056991;28;20565;-75
2021/01/10 12:00:43;;;;;;;10.73;8.00;;;3.70;99.90;;;;;;5063766;28;20250;-76
2021/01/10 12:03:09;;;;;;;13.33;7.63;;;3.50;99.90;;;;;;5044413;28;20175;-75
2021/01/10 12:05:35;;;;;;;11.40;7.10;;;3.30;99.90;;;;;;5062623;28;20202;-75
2021/01/10 12:08:01;;;;;;;13.67;8.60;;;2.90;99.90;;;;;;5063352;28;20195;-76
2021/01/10 12:10:27;;;;;;;8.80;7.90;;;2.70;99.90;;;;;;5061234;28;20400;-75
2021/01/10 12:12:54;;;;;;;11.27;8.00;;;2.60;99.90;;;;;;5064238;28;20490;-74
2021/01/10 12:15:20;;;;;;;10.97;7.80;;;2.60;99.90;;;;;;5061031;28;20200;-73
2021/01/10 12:17:46;;;;;;;12.43;7.90;;;2.60;99.90;;;;;;5063482;28;20414;-74
2021/01/10 12:20:12;;;;;;;10.73;7.70;;;2.60;99.90;;;;;;5057889;28;20454;-74
2021/01/10 12:22:38;;;;;;;10.00;7.63;;;2.50;99.90;;;;;;5062890;28;20606;-74
2021/01/10 12:25:03;;;;;;;10.93;7.40;;;2.60;99.90;;;;;;5062118;28;20554;-74
2021/01/10 12:27:29;;;;;;;10.70;7.43;;;2.60;99.90;;;;;;5062644;28;20172;-74
2021/01/10 12:29:54;;;;;;;10.30;6.63;;;2.70;99.90;;;;;;5060863;28;20264;-75
2021/01/10 12:32:20;;;;;;;13.50;6.97;;;2.60;99.90;;;;;;5045904;28;20179;-75
2021/01/10 12:34:46;;;;;;;10.07;6.10;;;2.60;99.90;;;;;;5060638;28;20675;-76
2021/01/10 12:37:12;;;;;;;10.63;7.10;;;2.60;99.90;;;;;;5062989;28;20190;-75
2021/01/10 12:39:37;;;;;;;11.03;7.70;;;2.60;99.90;;;;;;5061633;28;20491;-75
2021/01/10 12:42:03;;;;;;;9.93;7.70;;;2.60;99.90;;;;;;5061371;28;20185;-75
2021/01/10 12:44:28;;;;;;;10.80;7.60;;;2.70;99.90;;;;;;5062592;28;20736;-75